Rochester, NY

7:34 PM EDT on May 30, 2015 (GMT -0400)
Laurelton Area | | Change Station
CLOSE
Current Station
Personal Weather Station
Location: Rochester, NY
Elevation: 469 ft
Nearby Weather Stations

Elev 469 ft 43.17 °N, 77.55 °W | Updated 4 seconds ago

Rain
Rain
72.2 °F
Feels Like 72 °F
N
1.0
Wind Variable Wind from WNW
Gusts 15.0 mph

Today
High -- | Low -- °F
--% Chance of Precip.
Yesterday
High -- | Low -- °F
Precip. -- in
5:34 AM 8:41 PM
Waxing Gibbous, 92% visible
Pressure 29.96 in
Visibility 10.0 miles
Clouds Scattered Clouds 1700 ft
Mostly Cloudy 4700 ft
Overcast 10000 ft
Heat Index 72 °F
Dew Point 67 °F
Humidity 83%
Rainfall 0.07 in
Snow Depth Not available.
UV 0 out of 12
Pollen 6.20 out of 12
Air Quality Not available.
Flu Activity Sporadic
SPECI KROC 302307Z 31009KT 280V350 10SM -TSRA SCT017 BKN047CB OVC100 23/19 A2996 RMK AO2 RAB07 TSB06 OCNL LTGICCG SW-OHD-NE TS SW-OHD-NE MOV NE P0000 T02330189

More Conditions Fewer Conditions

Pressure 29.96 in
Visibility 10.0 miles
Clouds Scattered Clouds 1700 ft
Mostly Cloudy 4700 ft
Overcast 10000 ft
Heat Index 72 °F
Dew Point 67 °F
Humidity 83%
Rainfall 0.07 in
Snow Depth Not available.
UV 0 out of 12
Pollen 6.20 out of 12
Air Quality Not available.
Flu Activity Sporadic
SPECI KROC 302307Z 31009KT 280V350 10SM -TSRA SCT017 BKN047CB OVC100 23/19 A2996 RMK AO2 RAB07 TSB06 OCNL LTGICCG SW-OHD-NE TS SW-OHD-NE MOV NE P0000 T02330189

More Conditions Fewer Conditions

10-Day Weather Forecast

Almanac

Astronomy

May. 30, 2015 Rise Set
Actual Time
Civil Twilight
Nautical Twilight
Astronomical Twilight
Moon
Length of Visible Light
Length of Day
Tomorrow will be .
, % of the Moon is Illuminated

Today's Extremes

State Highs State Lows

Community

WunderPhotos

Upload Photos

1,825,556 photos uploaded!

WunderBlogs® & News

Nearby

Air Quality

  Air Quality AQ Index Pollutant
Not available.

Snow Depth

Station Depth Elevation

Earthquake Activity

City Distance Mag. Time & Date
Minimum magnitude displayed is 2.5.

Coastal Water Temperatures

Place Temperature

Stations

Nearby Weather Stations

Station Location Temp. Windchill Dew Point Humidity Wind Precip. Elev Updated Type